sensor_id;sensor_type;location;lat;lon;timestamp;P1;durP1;ratioP1;P2;durP2;ratioP2
19127;SDS011;9696;53.686;10.094;2023-07-29T00:01:07;8.73;;;2.97;;
19127;SDS011;9696;53.686;10.094;2023-07-29T00:03:36;3.63;;;2.78;;
19127;SDS011;9696;53.686;10.094;2023-07-29T00:06:05;3.05;;;2.53;;
19127;SDS011;9696;53.686;10.094;2023-07-29T00:08:36;8.40;;;2.80;;
19127;SDS011;9696;53.686;10.094;2023-07-29T00:11:05;5.18;;;3.10;;
19127;SDS011;9696;53.686;10.094;2023-07-29T00:13:34;4.47;;;3.00;;
19127;SDS011;9696;53.686;10.094;2023-07-29T00:16:03;4.93;;;2.88;;
19127;SDS011;9696;53.686;10.094;2023-07-29T00:18:33;7.40;;;3.45;;
19127;SDS011;9696;53.686;10.094;2023-07-29T00:21:02;8.57;;;3.30;;
19127;SDS011;9696;53.686;10.094;2023-07-29T00:23:31;7.10;;;3.45;;
19127;SDS011;9696;53.686;10.094;2023-07-29T00:26:02;3.85;;;3.28;;
19127;SDS011;9696;53.686;10.094;2023-07-29T00:28:31;4.15;;;3.08;;
19127;SDS011;9696;53.686;10.094;2023-07-29T00:31:01;7.85;;;4.03;;
19127;SDS011;9696;53.686;10.094;2023-07-29T00:33:30;10.65;;;3.78;;
19127;SDS011;9696;53.686;10.094;2023-07-29T00:35:59;5.50;;;3.40;;
19127;SDS011;9696;53.686;10.094;2023-07-29T00:38:29;10.23;;;3.28;;
19127;SDS011;9696;53.686;10.094;2023-07-29T00:40:58;5.43;;;3.33;;
19127;SDS011;9696;53.686;10.094;2023-07-29T00:43:31;5.57;;;3.30;;
19127;SDS011;9696;53.686;10.094;2023-07-29T00:46:01;6.15;;;3.17;;
19127;SDS011;9696;53.686;10.094;2023-07-29T00:48:31;4.63;;;2.97;;
19127;SDS011;9696;53.686;10.094;2023-07-29T00:51:02;6.65;;;3.10;;
19127;SDS011;9696;53.686;10.094;2023-07-29T00:53:31;6.57;;;2.78;;
19127;SDS011;9696;53.686;10.094;2023-07-29T00:56:00;4.97;;;3.22;;
19127;SDS011;9696;53.686;10.094;2023-07-29T00:58:31;4.35;;;3.20;;
19127;SDS011;9696;53.686;10.094;2023-07-29T01:01:02;3.80;;;2.85;;
19127;SDS011;9696;53.686;10.094;2023-07-29T01:03:31;3.92;;;2.83;;
19127;SDS011;9696;53.686;10.094;2023-07-29T01:06:04;5.72;;;2.55;;
19127;SDS011;9696;53.686;10.094;2023-07-29T01:08:44;3.15;;;2.70;;
19127;SDS011;9696;53.686;10.094;2023-07-29T01:11:27;3.45;;;2.50;;
19127;SDS011;9696;53.686;10.094;2023-07-29T01:14:11;3.90;;;2.80;;
19127;SDS011;9696;53.686;10.094;2023-07-29T01:16:55;5.07;;;2.72;;
19127;SDS011;9696;53.686;10.094;2023-07-29T01:19:38;8.20;;;3.00;;
19127;SDS011;9696;53.686;10.094;2023-07-29T01:22:19;5.05;;;2.92;;
19127;SDS011;9696;53.686;10.094;2023-07-29T01:24:50;5.10;;;3.03;;
19127;SDS011;9696;53.686;10.094;2023-07-29T01:27:19;6.80;;;3.10;;
19127;SDS011;9696;53.686;10.094;2023-07-29T01:29:49;5.25;;;3.13;;
19127;SDS011;9696;53.686;10.094;2023-07-29T01:32:29;4.22;;;2.72;;
19127;SDS011;9696;53.686;10.094;2023-07-29T01:35:06;4.45;;;2.60;;
19127;SDS011;9696;53.686;10.094;2023-07-29T01:37:42;5.45;;;2.65;;
19127;SDS011;9696;53.686;10.094;2023-07-29T01:40:19;4.50;;;3.10;;
19127;SDS011;9696;53.686;10.094;2023-07-29T01:42:50;3.58;;;2.63;;
19127;SDS011;9696;53.686;10.094;2023-07-29T01:45:22;3.35;;;2.25;;
19127;SDS011;9696;53.686;10.094;2023-07-29T01:47:52;3.80;;;2.33;;
19127;SDS011;9696;53.686;10.094;2023-07-29T01:50:22;3.55;;;2.38;;
19127;SDS011;9696;53.686;10.094;2023-07-29T01:52:51;2.95;;;2.00;;
19127;SDS011;9696;53.686;10.094;2023-07-29T01:55:21;3.13;;;2.40;;
19127;SDS011;9696;53.686;10.094;2023-07-29T01:57:51;3.85;;;2.40;;
19127;SDS011;9696;53.686;10.094;2023-07-29T02:00:21;5.85;;;3.00;;
19127;SDS011;9696;53.686;10.094;2023-07-29T02:02:50;2.85;;;2.30;;
19127;SDS011;9696;53.686;10.094;2023-07-29T02:05:19;2.85;;;2.33;;
19127;SDS011;9696;53.686;10.094;2023-07-29T02:07:48;8.30;;;2.63;;
19127;SDS011;9696;53.686;10.094;2023-07-29T02:10:18;3.00;;;2.40;;
19127;SDS011;9696;53.686;10.094;2023-07-29T02:12:48;4.13;;;2.70;;
19127;SDS011;9696;53.686;10.094;2023-07-29T02:15:17;6.07;;;3.00;;
19127;SDS011;9696;53.686;10.094;2023-07-29T02:17:46;6.30;;;2.67;;
19127;SDS011;9696;53.686;10.094;2023-07-29T02:20:18;9.55;;;3.05;;
19127;SDS011;9696;53.686;10.094;2023-07-29T02:22:47;11.65;;;2.97;;
19127;SDS011;9696;53.686;10.094;2023-07-29T02:25:17;10.10;;;2.75;;
19127;SDS011;9696;53.686;10.094;2023-07-29T02:27:46;5.00;;;2.50;;
19127;SDS011;9696;53.686;10.094;2023-07-29T02:30:16;9.55;;;2.70;;
19127;SDS011;9696;53.686;10.094;2023-07-29T02:32:45;5.88;;;2.80;;
19127;SDS011;9696;53.686;10.094;2023-07-29T02:35:15;7.13;;;2.88;;
19127;SDS011;9696;53.686;10.094;2023-07-29T02:37:44;5.50;;;3.15;;
19127;SDS011;9696;53.686;10.094;2023-07-29T02:40:14;6.28;;;2.95;;
19127;SDS011;9696;53.686;10.094;2023-07-29T02:42:43;5.13;;;3.13;;
19127;SDS011;9696;53.686;10.094;2023-07-29T02:45:13;5.22;;;2.97;;
19127;SDS011;9696;53.686;10.094;2023-07-29T02:47:43;5.57;;;3.33;;
19127;SDS011;9696;53.686;10.094;2023-07-29T02:50:12;10.60;;;3.40;;
19127;SDS011;9696;53.686;10.094;2023-07-29T02:52:41;5.10;;;3.00;;
19127;SDS011;9696;53.686;10.094;2023-07-29T02:55:10;4.03;;;2.88;;
19127;SDS011;9696;53.686;10.094;2023-07-29T02:57:39;4.40;;;3.33;;
19127;SDS011;9696;53.686;10.094;2023-07-29T03:00:09;5.75;;;4.07;;
19127;SDS011;9696;53.686;10.094;2023-07-29T03:02:41;6.45;;;4.03;;
19127;SDS011;9696;53.686;10.094;2023-07-29T03:05:11;5.20;;;3.50;;
19127;SDS011;9696;53.686;10.094;2023-07-29T03:07:41;6.13;;;4.35;;
19127;SDS011;9696;53.686;10.094;2023-07-29T03:10:10;7.22;;;4.40;;
19127;SDS011;9696;53.686;10.094;2023-07-29T03:12:41;6.68;;;4.57;;
19127;SDS011;9696;53.686;10.094;2023-07-29T03:15:11;10.02;;;4.70;;
19127;SDS011;9696;53.686;10.094;2023-07-29T03:17:42;7.53;;;4.68;;
19127;SDS011;9696;53.686;10.094;2023-07-29T03:20:11;7.57;;;5.00;;
19127;SDS011;9696;53.686;10.094;2023-07-29T03:22:40;5.72;;;4.60;;
19127;SDS011;9696;53.686;10.094;2023-07-29T03:25:09;7.10;;;5.05;;
19127;SDS011;9696;53.686;10.094;2023-07-29T03:27:39;7.72;;;4.70;;
19127;SDS011;9696;53.686;10.094;2023-07-29T03:30:08;7.25;;;5.13;;
19127;SDS011;9696;53.686;10.094;2023-07-29T03:32:39;13.48;;;5.80;;
19127;SDS011;9696;53.686;10.094;2023-07-29T03:35:11;6.55;;;5.47;;
19127;SDS011;9696;53.686;10.094;2023-07-29T03:37:41;7.65;;;5.43;;
19127;SDS011;9696;53.686;10.094;2023-07-29T03:40:10;8.02;;;5.45;;
19127;SDS011;9696;53.686;10.094;2023-07-29T03:42:39;9.20;;;5.53;;
19127;SDS011;9696;53.686;10.094;2023-07-29T03:45:09;11.05;;;5.65;;
19127;SDS011;9696;53.686;10.094;2023-07-29T03:47:38;9.95;;;5.90;;
19127;SDS011;9696;53.686;10.094;2023-07-29T03:50:09;8.73;;;5.53;;
19127;SDS011;9696;53.686;10.094;2023-07-29T03:52:38;7.40;;;5.50;;
19127;SDS011;9696;53.686;10.094;2023-07-29T03:55:08;10.48;;;5.70;;
19127;SDS011;9696;53.686;10.094;2023-07-29T03:57:37;8.65;;;5.88;;
19127;SDS011;9696;53.686;10.094;2023-07-29T04:00:06;9.77;;;6.28;;
19127;SDS011;9696;53.686;10.094;2023-07-29T04:02:46;10.38;;;5.82;;
19127;SDS011;9696;53.686;10.094;2023-07-29T04:05:17;10.23;;;6.30;;
19127;SDS011;9696;53.686;10.094;2023-07-29T04:07:47;8.18;;;6.15;;
19127;SDS011;9696;53.686;10.094;2023-07-29T04:10:16;9.35;;;7.10;;
19127;SDS011;9696;53.686;10.094;2023-07-29T04:12:46;13.52;;;7.63;;
19127;SDS011;9696;53.686;10.094;2023-07-29T04:15:16;12.55;;;7.45;;
19127;SDS011;9696;53.686;10.094;2023-07-29T04:17:45;14.38;;;8.23;;
19127;SDS011;9696;53.686;10.094;2023-07-29T04:20:14;13.52;;;9.25;;
19127;SDS011;9696;53.686;10.094;2023-07-29T04:22:45;14.93;;;9.85;;
19127;SDS011;9696;53.686;10.094;2023-07-29T04:25:14;20.67;;;9.30;;
19127;SDS011;9696;53.686;10.094;2023-07-29T04:27:44;17.75;;;10.13;;
19127;SDS011;9696;53.686;10.094;2023-07-29T04:30:13;17.88;;;10.32;;
19127;SDS011;9696;53.686;10.094;2023-07-29T04:32:42;14.63;;;10.70;;
19127;SDS011;9696;53.686;10.094;2023-07-29T04:35:12;16.73;;;10.35;;
19127;SDS011;9696;53.686;10.094;2023-07-29T04:37:41;20.58;;;11.07;;
19127;SDS011;9696;53.686;10.094;2023-07-29T04:40:12;19.38;;;11.75;;
19127;SDS011;9696;53.686;10.094;2023-07-29T04:42:41;19.73;;;11.30;;
19127;SDS011;9696;53.686;10.094;2023-07-29T04:45:10;19.40;;;12.07;;
19127;SDS011;9696;53.686;10.094;2023-07-29T04:47:40;19.90;;;11.68;;
19127;SDS011;9696;53.686;10.094;2023-07-29T04:50:10;26.77;;;12.35;;
19127;SDS011;9696;53.686;10.094;2023-07-29T04:52:39;18.98;;;12.38;;
19127;SDS011;9696;53.686;10.094;2023-07-29T04:55:08;16.48;;;11.55;;
19127;SDS011;9696;53.686;10.094;2023-07-29T04:57:39;17.08;;;11.45;;
19127;SDS011;9696;53.686;10.094;2023-07-29T05:00:09;18.67;;;11.95;;
19127;SDS011;9696;53.686;10.094;2023-07-29T05:02:39;18.55;;;12.82;;
19127;SDS011;9696;53.686;10.094;2023-07-29T05:05:08;16.38;;;11.13;;
19127;SDS011;9696;53.686;10.094;2023-07-29T05:07:37;17.63;;;11.18;;
19127;SDS011;9696;53.686;10.094;2023-07-29T05:10:07;22.88;;;12.18;;
19127;SDS011;9696;53.686;10.094;2023-07-29T05:12:39;18.23;;;10.55;;
19127;SDS011;9696;53.686;10.094;2023-07-29T05:15:09;19.10;;;11.55;;
19127;SDS011;9696;53.686;10.094;2023-07-29T05:17:38;17.63;;;11.20;;
19127;SDS011;9696;53.686;10.094;2023-07-29T05:20:08;17.13;;;10.90;;
19127;SDS011;9696;53.686;10.094;2023-07-29T05:22:38;19.65;;;11.13;;
19127;SDS011;9696;53.686;10.094;2023-07-29T05:25:08;20.17;;;11.63;;
19127;SDS011;9696;53.686;10.094;2023-07-29T05:27:37;18.90;;;11.77;;
19127;SDS011;9696;53.686;10.094;2023-07-29T05:30:08;19.77;;;11.35;;
19127;SDS011;9696;53.686;10.094;2023-07-29T05:32:38;20.52;;;11.25;;
19127;SDS011;9696;53.686;10.094;2023-07-29T05:35:07;18.83;;;10.65;;
19127;SDS011;9696;53.686;10.094;2023-07-29T05:37:38;17.60;;;10.32;;
19127;SDS011;9696;53.686;10.094;2023-07-29T05:40:07;16.25;;;10.75;;
19127;SDS011;9696;53.686;10.094;2023-07-29T05:42:40;17.85;;;10.23;;
19127;SDS011;9696;53.686;10.094;2023-07-29T05:45:09;16.45;;;10.57;;
19127;SDS011;9696;53.686;10.094;2023-07-29T05:47:39;16.65;;;9.85;;
19127;SDS011;9696;53.686;10.094;2023-07-29T05:50:09;19.23;;;11.30;;
19127;SDS011;9696;53.686;10.094;2023-07-29T05:52:38;16.77;;;11.07;;
19127;SDS011;9696;53.686;10.094;2023-07-29T05:55:07;17.48;;;11.05;;
19127;SDS011;9696;53.686;10.094;2023-07-29T05:57:37;16.92;;;10.88;;
19127;SDS011;9696;53.686;10.094;2023-07-29T06:00:10;17.65;;;11.50;;
19127;SDS011;9696;53.686;10.094;2023-07-29T06:02:40;17.15;;;10.80;;
19127;SDS011;9696;53.686;10.094;2023-07-29T06:05:14;19.60;;;11.38;;
19127;SDS011;9696;53.686;10.094;2023-07-29T06:07:44;17.83;;;10.88;;
19127;SDS011;9696;53.686;10.094;2023-07-29T06:10:15;15.32;;;10.50;;
19127;SDS011;9696;53.686;10.094;2023-07-29T06:12:47;14.23;;;10.35;;
19127;SDS011;9696;53.686;10.094;2023-07-29T06:15:16;15.70;;;10.13;;
19127;SDS011;9696;53.686;10.094;2023-07-29T06:17:49;15.10;;;10.27;;
19127;SDS011;9696;53.686;10.094;2023-07-29T06:20:22;15.65;;;9.80;;
19127;SDS011;9696;53.686;10.094;2023-07-29T06:22:51;16.45;;;10.48;;
19127;SDS011;9696;53.686;10.094;2023-07-29T06:25:20;17.73;;;10.65;;
19127;SDS011;9696;53.686;10.094;2023-07-29T06:27:51;18.27;;;11.02;;
19127;SDS011;9696;53.686;10.094;2023-07-29T06:30:20;19.67;;;10.35;;
19127;SDS011;9696;53.686;10.094;2023-07-29T06:32:49;19.17;;;11.00;;
19127;SDS011;9696;53.686;10.094;2023-07-29T06:35:18;16.35;;;9.98;;
19127;SDS011;9696;53.686;10.094;2023-07-29T06:37:47;17.05;;;9.60;;
19127;SDS011;9696;53.686;10.094;2023-07-29T06:40:17;18.55;;;9.38;;
19127;SDS011;9696;53.686;10.094;2023-07-29T06:42:46;14.85;;;9.40;;
19127;SDS011;9696;53.686;10.094;2023-07-29T06:45:16;19.75;;;10.43;;
19127;SDS011;9696;53.686;10.094;2023-07-29T06:47:45;16.65;;;9.85;;
19127;SDS011;9696;53.686;10.094;2023-07-29T06:50:15;15.10;;;9.95;;
19127;SDS011;9696;53.686;10.094;2023-07-29T06:52:44;16.77;;;9.88;;
19127;SDS011;9696;53.686;10.094;2023-07-29T06:55:13;15.35;;;9.90;;
19127;SDS011;9696;53.686;10.094;2023-07-29T06:57:43;19.02;;;10.52;;
19127;SDS011;9696;53.686;10.094;2023-07-29T07:00:12;15.13;;;9.77;;
19127;SDS011;9696;53.686;10.094;2023-07-29T07:02:42;16.42;;;10.50;;
19127;SDS011;9696;53.686;10.094;2023-07-29T07:05:12;19.15;;;9.73;;
19127;SDS011;9696;53.686;10.094;2023-07-29T07:07:41;11.70;;;9.07;;
19127;SDS011;9696;53.686;10.094;2023-07-29T07:10:10;18.98;;;10.43;;
19127;SDS011;9696;53.686;10.094;2023-07-29T07:12:39;12.50;;;8.80;;
19127;SDS011;9696;53.686;10.094;2023-07-29T07:15:08;14.52;;;9.40;;
19127;SDS011;9696;53.686;10.094;2023-07-29T07:17:38;14.80;;;9.00;;
19127;SDS011;9696;53.686;10.094;2023-07-29T07:20:09;13.82;;;8.93;;
19127;SDS011;9696;53.686;10.094;2023-07-29T07:22:38;14.48;;;8.82;;
19127;SDS011;9696;53.686;10.094;2023-07-29T07:25:08;16.13;;;9.25;;
19127;SDS011;9696;53.686;10.094;2023-07-29T07:27:37;14.00;;;9.43;;
19127;SDS011;9696;53.686;10.094;2023-07-29T07:30:06;14.82;;;9.30;;
19127;SDS011;9696;53.686;10.094;2023-07-29T07:32:36;13.60;;;9.15;;
19127;SDS011;9696;53.686;10.094;2023-07-29T07:35:05;16.67;;;10.50;;
19127;SDS011;9696;53.686;10.094;2023-07-29T07:37:36;15.15;;;10.45;;
19127;SDS011;9696;53.686;10.094;2023-07-29T07:40:06;14.30;;;9.80;;
19127;SDS011;9696;53.686;10.094;2023-07-29T07:42:35;15.55;;;10.40;;
19127;SDS011;9696;53.686;10.094;2023-07-29T07:45:05;18.40;;;10.95;;
19127;SDS011;9696;53.686;10.094;2023-07-29T07:47:34;18.33;;;11.52;;
19127;SDS011;9696;53.686;10.094;2023-07-29T07:50:04;19.77;;;12.18;;
19127;SDS011;9696;53.686;10.094;2023-07-29T07:52:33;17.30;;;12.10;;
19127;SDS011;9696;53.686;10.094;2023-07-29T07:55:04;23.45;;;13.45;;
19127;SDS011;9696;53.686;10.094;2023-07-29T07:57:35;19.25;;;12.20;;
19127;SDS011;9696;53.686;10.094;2023-07-29T08:00:04;17.00;;;12.30;;
19127;SDS011;9696;53.686;10.094;2023-07-29T08:02:41;24.35;;;13.90;;
19127;SDS011;9696;53.686;10.094;2023-07-29T08:05:11;22.67;;;12.82;;
19127;SDS011;9696;53.686;10.094;2023-07-29T08:07:41;36.90;;;14.15;;
19127;SDS011;9696;53.686;10.094;2023-07-29T08:10:11;19.33;;;12.15;;
19127;SDS011;9696;53.686;10.094;2023-07-29T08:12:40;24.95;;;13.35;;
19127;SDS011;9696;53.686;10.094;2023-07-29T08:15:09;23.35;;;13.57;;
19127;SDS011;9696;53.686;10.094;2023-07-29T08:17:38;20.20;;;12.50;;
19127;SDS011;9696;53.686;10.094;2023-07-29T08:20:08;22.70;;;13.85;;
19127;SDS011;9696;53.686;10.094;2023-07-29T08:22:38;19.02;;;12.02;;
19127;SDS011;9696;53.686;10.094;2023-07-29T08:25:07;19.88;;;12.00;;
19127;SDS011;9696;53.686;10.094;2023-07-29T08:27:38;19.63;;;12.90;;
19127;SDS011;9696;53.686;10.094;2023-07-29T08:30:07;20.10;;;11.70;;
19127;SDS011;9696;53.686;10.094;2023-07-29T08:32:37;19.42;;;11.23;;
19127;SDS011;9696;53.686;10.094;2023-07-29T08:35:06;21.60;;;12.43;;
19127;SDS011;9696;53.686;10.094;2023-07-29T08:37:35;18.55;;;12.25;;
19127;SDS011;9696;53.686;10.094;2023-07-29T08:40:05;23.35;;;12.88;;
19127;SDS011;9696;53.686;10.094;2023-07-29T08:42:35;23.15;;;12.52;;
19127;SDS011;9696;53.686;10.094;2023-07-29T08:45:09;17.23;;;11.48;;
19127;SDS011;9696;53.686;10.094;2023-07-29T08:47:39;20.38;;;12.05;;
19127;SDS011;9696;53.686;10.094;2023-07-29T08:50:09;19.13;;;11.90;;
19127;SDS011;9696;53.686;10.094;2023-07-29T08:52:41;18.65;;;11.75;;
19127;SDS011;9696;53.686;10.094;2023-07-29T08:55:11;20.77;;;11.25;;
19127;SDS011;9696;53.686;10.094;2023-07-29T08:57:41;24.80;;;11.50;;
19127;SDS011;9696;53.686;10.094;2023-07-29T09:00:11;16.52;;;11.23;;
19127;SDS011;9696;53.686;10.094;2023-07-29T09:02:44;16.17;;;11.02;;
19127;SDS011;9696;53.686;10.094;2023-07-29T09:05:13;17.67;;;11.30;;
19127;SDS011;9696;53.686;10.094;2023-07-29T09:07:43;17.08;;;10.75;;
19127;SDS011;9696;53.686;10.094;2023-07-29T09:10:14;17.92;;;11.40;;
19127;SDS011;9696;53.686;10.094;2023-07-29T09:12:44;17.15;;;10.98;;
19127;SDS011;9696;53.686;10.094;2023-07-29T09:15:14;15.38;;;10.85;;
19127;SDS011;9696;53.686;10.094;2023-07-29T09:17:56;20.92;;;11.23;;
19127;SDS011;9696;53.686;10.094;2023-07-29T09:20:29;19.50;;;10.85;;
19127;SDS011;9696;53.686;10.094;2023-07-29T09:22:58;15.35;;;10.82;;
19127;SDS011;9696;53.686;10.094;2023-07-29T09:25:28;14.40;;;9.32;;
19127;SDS011;9696;53.686;10.094;2023-07-29T09:27:59;17.48;;;10.40;;
19127;SDS011;9696;53.686;10.094;2023-07-29T09:30:29;14.75;;;9.50;;
19127;SDS011;9696;53.686;10.094;2023-07-29T09:32:58;15.07;;;9.85;;
19127;SDS011;9696;53.686;10.094;2023-07-29T09:35:28;13.32;;;9.48;;
19127;SDS011;9696;53.686;10.094;2023-07-29T09:37:58;16.45;;;9.55;;
19127;SDS011;9696;53.686;10.094;2023-07-29T09:40:28;12.85;;;8.43;;
19127;SDS011;9696;53.686;10.094;2023-07-29T09:43:08;12.90;;;8.80;;
19127;SDS011;9696;53.686;10.094;2023-07-29T09:45:37;11.65;;;8.60;;
19127;SDS011;9696;53.686;10.094;2023-07-29T09:48:06;13.32;;;8.75;;
19127;SDS011;9696;53.686;10.094;2023-07-29T09:50:38;12.82;;;8.30;;
19127;SDS011;9696;53.686;10.094;2023-07-29T09:53:07;12.13;;;7.45;;
19127;SDS011;9696;53.686;10.094;2023-07-29T09:55:36;11.38;;;7.30;;
19127;SDS011;9696;53.686;10.094;2023-07-29T09:58:06;9.95;;;6.88;;
19127;SDS011;9696;53.686;10.094;2023-07-29T10:00:35;11.18;;;5.80;;
19127;SDS011;9696;53.686;10.094;2023-07-29T10:03:06;8.48;;;5.63;;
19127;SDS011;9696;53.686;10.094;2023-07-29T10:05:35;7.43;;;5.13;;
19127;SDS011;9696;53.686;10.094;2023-07-29T10:08:05;8.07;;;5.03;;
19127;SDS011;9696;53.686;10.094;2023-07-29T10:10:35;8.40;;;4.75;;
19127;SDS011;9696;53.686;10.094;2023-07-29T10:13:04;5.82;;;3.97;;
19127;SDS011;9696;53.686;10.094;2023-07-29T10:15:35;6.38;;;4.30;;
19127;SDS011;9696;53.686;10.094;2023-07-29T10:18:05;6.18;;;3.95;;
19127;SDS011;9696;53.686;10.094;2023-07-29T10:20:34;4.50;;;3.13;;
19127;SDS011;9696;53.686;10.094;2023-07-29T10:23:04;4.78;;;3.08;;
19127;SDS011;9696;53.686;10.094;2023-07-29T10:25:38;5.75;;;3.03;;
19127;SDS011;9696;53.686;10.094;2023-07-29T10:28:12;4.40;;;2.67;;
19127;SDS011;9696;53.686;10.094;2023-07-29T10:30:43;8.02;;;2.28;;
19127;SDS011;9696;53.686;10.094;2023-07-29T10:33:12;5.00;;;2.33;;
19127;SDS011;9696;53.686;10.094;2023-07-29T10:35:42;2.88;;;2.55;;
19127;SDS011;9696;53.686;10.094;2023-07-29T10:38:11;4.15;;;1.88;;
19127;SDS011;9696;53.686;10.094;2023-07-29T10:40:45;4.15;;;2.40;;
19127;SDS011;9696;53.686;10.094;2023-07-29T10:43:20;4.68;;;2.08;;
19127;SDS011;9696;53.686;10.094;2023-07-29T10:45:53;3.58;;;2.22;;
19127;SDS011;9696;53.686;10.094;2023-07-29T10:48:42;4.57;;;2.65;;
19127;SDS011;9696;53.686;10.094;2023-07-29T10:51:22;2.78;;;2.17;;
19127;SDS011;9696;53.686;10.094;2023-07-29T10:53:52;6.97;;;2.30;;
19127;SDS011;9696;53.686;10.094;2023-07-29T10:56:29;3.85;;;2.08;;
19127;SDS011;9696;53.686;10.094;2023-07-29T11:02:01;4.80;;;2.00;;
19127;SDS011;9696;53.686;10.094;2023-07-29T11:04:46;4.05;;;2.17;;
19127;SDS011;9696;53.686;10.094;2023-07-29T11:07:20;4.55;;;2.28;;
19127;SDS011;9696;53.686;10.094;2023-07-29T11:09:57;4.47;;;2.38;;
19127;SDS011;9696;53.686;10.094;2023-07-29T11:12:34;4.65;;;2.38;;
19127;SDS011;9696;53.686;10.094;2023-07-29T11:15:18;4.03;;;2.25;;
19127;SDS011;9696;53.686;10.094;2023-07-29T11:17:49;2.70;;;2.38;;
19127;SDS011;9696;53.686;10.094;2023-07-29T11:20:20;3.42;;;2.20;;
19127;SDS011;9696;53.686;10.094;2023-07-29T11:22:50;2.88;;;1.80;;
19127;SDS011;9696;53.686;10.094;2023-07-29T11:25:21;1.70;;;1.33;;
19127;SDS011;9696;53.686;10.094;2023-07-29T11:27:51;2.10;;;1.50;;
19127;SDS011;9696;53.686;10.094;2023-07-29T11:30:23;1.92;;;1.40;;
19127;SDS011;9696;53.686;10.094;2023-07-29T11:32:54;3.28;;;1.50;;
19127;SDS011;9696;53.686;10.094;2023-07-29T11:35:24;2.53;;;1.40;;
19127;SDS011;9696;53.686;10.094;2023-07-29T11:37:54;2.42;;;1.52;;
19127;SDS011;9696;53.686;10.094;2023-07-29T11:40:24;2.28;;;1.50;;
19127;SDS011;9696;53.686;10.094;2023-07-29T11:42:53;1.60;;;1.25;;
19127;SDS011;9696;53.686;10.094;2023-07-29T11:45:24;3.05;;;1.48;;
19127;SDS011;9696;53.686;10.094;2023-07-29T11:48:14;5.45;;;1.80;;
19127;SDS011;9696;53.686;10.094;2023-07-29T11:50:43;2.28;;;1.48;;
19127;SDS011;9696;53.686;10.094;2023-07-29T11:53:14;2.95;;;1.70;;
19127;SDS011;9696;53.686;10.094;2023-07-29T11:55:43;2.05;;;1.58;;
19127;SDS011;9696;53.686;10.094;2023-07-29T11:58:12;2.65;;;1.88;;
19127;SDS011;9696;53.686;10.094;2023-07-29T12:00:44;2.53;;;1.60;;
19127;SDS011;9696;53.686;10.094;2023-07-29T12:03:14;2.97;;;1.80;;
19127;SDS011;9696;53.686;10.094;2023-07-29T12:05:45;3.38;;;1.85;;
19127;SDS011;9696;53.686;10.094;2023-07-29T12:08:16;4.72;;;1.70;;
19127;SDS011;9696;53.686;10.094;2023-07-29T12:10:45;3.30;;;1.55;;
19127;SDS011;9696;53.686;10.094;2023-07-29T12:13:15;3.00;;;1.48;;
19127;SDS011;9696;53.686;10.094;2023-07-29T12:15:45;3.13;;;1.40;;
19127;SDS011;9696;53.686;10.094;2023-07-29T12:18:14;1.80;;;1.48;;
19127;SDS011;9696;53.686;10.094;2023-07-29T12:20:44;7.90;;;1.75;;
19127;SDS011;9696;53.686;10.094;2023-07-29T12:23:13;1.98;;;1.50;;
19127;SDS011;9696;53.686;10.094;2023-07-29T12:25:42;2.20;;;1.60;;
19127;SDS011;9696;53.686;10.094;2023-07-29T12:28:12;2.55;;;1.33;;
19127;SDS011;9696;53.686;10.094;2023-07-29T12:30:41;2.70;;;1.58;;
19127;SDS011;9696;53.686;10.094;2023-07-29T12:33:28;2.15;;;1.45;;
19127;SDS011;9696;53.686;10.094;2023-07-29T12:35:58;2.10;;;1.40;;
19127;SDS011;9696;53.686;10.094;2023-07-29T12:38:27;2.80;;;1.30;;
19127;SDS011;9696;53.686;10.094;2023-07-29T12:40:57;2.65;;;1.30;;
19127;SDS011;9696;53.686;10.094;2023-07-29T12:43:26;1.25;;;1.00;;
19127;SDS011;9696;53.686;10.094;2023-07-29T12:45:56;2.03;;;0.80;;
19127;SDS011;9696;53.686;10.094;2023-07-29T12:48:27;1.00;;;0.90;;
19127;SDS011;9696;53.686;10.094;2023-07-29T12:50:56;2.17;;;1.10;;
19127;SDS011;9696;53.686;10.094;2023-07-29T12:53:25;1.05;;;0.95;;
19127;SDS011;9696;53.686;10.094;2023-07-29T12:55:54;0.88;;;0.75;;
19127;SDS011;9696;53.686;10.094;2023-07-29T12:58:23;2.40;;;1.10;;
19127;SDS011;9696;53.686;10.094;2023-07-29T13:00:52;1.20;;;1.10;;
19127;SDS011;9696;53.686;10.094;2023-07-29T13:03:21;1.17;;;1.08;;
19127;SDS011;9696;53.686;10.094;2023-07-29T13:05:53;1.65;;;1.00;;
19127;SDS011;9696;53.686;10.094;2023-07-29T13:08:22;1.02;;;0.90;;
19127;SDS011;9696;53.686;10.094;2023-07-29T13:10:51;3.10;;;1.00;;
19127;SDS011;9696;53.686;10.094;2023-07-29T13:13:20;1.95;;;1.17;;
19127;SDS011;9696;53.686;10.094;2023-07-29T13:15:49;1.77;;;0.90;;
19127;SDS011;9696;53.686;10.094;2023-07-29T13:18:21;1.50;;;0.77;;
19127;SDS011;9696;53.686;10.094;2023-07-29T13:20:50;0.82;;;0.80;;
19127;SDS011;9696;53.686;10.094;2023-07-29T13:23:20;1.23;;;0.85;;
19127;SDS011;9696;53.686;10.094;2023-07-29T13:25:50;1.35;;;0.90;;
19127;SDS011;9696;53.686;10.094;2023-07-29T13:28:19;1.05;;;0.85;;
19127;SDS011;9696;53.686;10.094;2023-07-29T13:30:48;1.30;;;0.95;;
19127;SDS011;9696;53.686;10.094;2023-07-29T13:33:17;1.45;;;0.90;;
19127;SDS011;9696;53.686;10.094;2023-07-29T13:35:46;3.20;;;1.00;;
19127;SDS011;9696;53.686;10.094;2023-07-29T13:38:17;4.03;;;0.77;;
19127;SDS011;9696;53.686;10.094;2023-07-29T13:40:46;5.05;;;1.13;;
19127;SDS011;9696;53.686;10.094;2023-07-29T13:43:17;1.92;;;1.00;;
19127;SDS011;9696;53.686;10.094;2023-07-29T13:45:47;1.15;;;0.60;;
19127;SDS011;9696;53.686;10.094;2023-07-29T13:48:17;2.20;;;0.63;;
19127;SDS011;9696;53.686;10.094;2023-07-29T13:50:48;1.05;;;0.90;;
19127;SDS011;9696;53.686;10.094;2023-07-29T13:53:19;2.63;;;1.10;;
19127;SDS011;9696;53.686;10.094;2023-07-29T13:55:49;5.20;;;1.00;;
19127;SDS011;9696;53.686;10.094;2023-07-29T13:58:18;1.30;;;1.00;;
19127;SDS011;9696;53.686;10.094;2023-07-29T14:00:47;1.63;;;1.02;;
19127;SDS011;9696;53.686;10.094;2023-07-29T14:03:16;2.35;;;0.90;;
19127;SDS011;9696;53.686;10.094;2023-07-29T14:05:46;1.20;;;0.80;;
19127;SDS011;9696;53.686;10.094;2023-07-29T14:08:15;1.65;;;0.85;;
19127;SDS011;9696;53.686;10.094;2023-07-29T14:10:45;3.03;;;0.85;;
19127;SDS011;9696;53.686;10.094;2023-07-29T14:13:14;1.20;;;1.00;;
19127;SDS011;9696;53.686;10.094;2023-07-29T14:15:44;2.50;;;1.23;;
19127;SDS011;9696;53.686;10.094;2023-07-29T14:18:13;1.42;;;0.90;;
19127;SDS011;9696;53.686;10.094;2023-07-29T14:20:42;1.60;;;0.82;;
19127;SDS011;9696;53.686;10.094;2023-07-29T14:23:11;1.48;;;0.88;;
19127;SDS011;9696;53.686;10.094;2023-07-29T14:25:40;2.45;;;1.10;;
19127;SDS011;9696;53.686;10.094;2023-07-29T14:28:12;1.58;;;1.30;;
19127;SDS011;9696;53.686;10.094;2023-07-29T14:30:42;1.65;;;0.82;;
19127;SDS011;9696;53.686;10.094;2023-07-29T14:33:11;1.73;;;1.00;;
19127;SDS011;9696;53.686;10.094;2023-07-29T14:35:41;1.58;;;0.98;;
19127;SDS011;9696;53.686;10.094;2023-07-29T14:38:10;3.38;;;1.02;;
19127;SDS011;9696;53.686;10.094;2023-07-29T14:40:39;1.98;;;0.98;;
19127;SDS011;9696;53.686;10.094;2023-07-29T14:43:09;2.15;;;1.10;;
19127;SDS011;9696;53.686;10.094;2023-07-29T14:45:39;1.90;;;0.90;;
19127;SDS011;9696;53.686;10.094;2023-07-29T14:48:08;3.25;;;1.00;;
19127;SDS011;9696;53.686;10.094;2023-07-29T14:50:38;1.25;;;0.60;;
19127;SDS011;9696;53.686;10.094;2023-07-29T14:53:08;2.67;;;0.90;;
19127;SDS011;9696;53.686;10.094;2023-07-29T14:55:37;4.43;;;0.80;;
19127;SDS011;9696;53.686;10.094;2023-07-29T14:58:06;1.15;;;0.77;;
19127;SDS011;9696;53.686;10.094;2023-07-29T15:00:37;3.28;;;1.00;;